sensor_id;sensor_type;location;lat;lon;timestamp;P1;durP1;ratioP1;P2;durP2;ratioP2
7719;SDS011;3902;49.474;8.616;2023-07-20T00:01:58;3.67;;;2.60;;
7719;SDS011;3902;49.474;8.616;2023-07-20T00:04:24;3.60;;;2.87;;
7719;SDS011;3902;49.474;8.616;2023-07-20T00:06:49;4.00;;;2.70;;
7719;SDS011;3902;49.474;8.616;2023-07-20T00:09:15;3.37;;;2.50;;
7719;SDS011;3902;49.474;8.616;2023-07-20T00:11:47;3.77;;;2.67;;
7719;SDS011;3902;49.474;8.616;2023-07-20T00:14:17;2.27;;;2.07;;
7719;SDS011;3902;49.474;8.616;2023-07-20T00:16:45;3.57;;;2.30;;
7719;SDS011;3902;49.474;8.616;2023-07-20T00:19:12;3.37;;;2.33;;
7719;SDS011;3902;49.474;8.616;2023-07-20T00:21:38;3.87;;;2.57;;
7719;SDS011;3902;49.474;8.616;2023-07-20T00:24:05;3.70;;;2.43;;
7719;SDS011;3902;49.474;8.616;2023-07-20T00:26:31;2.83;;;2.40;;
7719;SDS011;3902;49.474;8.616;2023-07-20T00:28:56;3.57;;;2.60;;
7719;SDS011;3902;49.474;8.616;2023-07-20T00:31:22;3.60;;;2.13;;
7719;SDS011;3902;49.474;8.616;2023-07-20T00:33:47;3.07;;;2.53;;
7719;SDS011;3902;49.474;8.616;2023-07-20T00:36:13;4.37;;;2.77;;
7719;SDS011;3902;49.474;8.616;2023-07-20T00:38:39;2.77;;;2.20;;
7719;SDS011;3902;49.474;8.616;2023-07-20T00:41:05;2.77;;;2.33;;
7719;SDS011;3902;49.474;8.616;2023-07-20T00:43:31;3.20;;;2.23;;
7719;SDS011;3902;49.474;8.616;2023-07-20T00:45:56;4.47;;;2.33;;
7719;SDS011;3902;49.474;8.616;2023-07-20T00:48:22;2.47;;;2.13;;
7719;SDS011;3902;49.474;8.616;2023-07-20T00:50:48;2.93;;;2.27;;
7719;SDS011;3902;49.474;8.616;2023-07-20T00:53:15;2.90;;;2.40;;
7719;SDS011;3902;49.474;8.616;2023-07-20T00:55:41;2.87;;;2.27;;
7719;SDS011;3902;49.474;8.616;2023-07-20T00:58:06;3.73;;;1.90;;
7719;SDS011;3902;49.474;8.616;2023-07-20T01:00:33;2.60;;;2.40;;
7719;SDS011;3902;49.474;8.616;2023-07-20T01:02:58;2.70;;;2.50;;
7719;SDS011;3902;49.474;8.616;2023-07-20T01:05:34;2.87;;;2.30;;
7719;SDS011;3902;49.474;8.616;2023-07-20T01:08:15;2.70;;;2.40;;
7719;SDS011;3902;49.474;8.616;2023-07-20T01:10:59;6.13;;;2.17;;
7719;SDS011;3902;49.474;8.616;2023-07-20T01:13:47;2.57;;;2.37;;
7719;SDS011;3902;49.474;8.616;2023-07-20T01:16:13;4.00;;;2.30;;
7719;SDS011;3902;49.474;8.616;2023-07-20T01:18:38;3.10;;;2.20;;
7719;SDS011;3902;49.474;8.616;2023-07-20T01:21:08;3.00;;;2.30;;
7719;SDS011;3902;49.474;8.616;2023-07-20T01:26:55;3.43;;;2.50;;
7719;SDS011;3902;49.474;8.616;2023-07-20T01:32:06;3.53;;;2.40;;
7719;SDS011;3902;49.474;8.616;2023-07-20T01:34:33;3.10;;;2.43;;
7719;SDS011;3902;49.474;8.616;2023-07-20T01:37:00;3.00;;;2.40;;
7719;SDS011;3902;49.474;8.616;2023-07-20T01:39:27;3.33;;;2.47;;
7719;SDS011;3902;49.474;8.616;2023-07-20T01:41:53;3.43;;;2.80;;
7719;SDS011;3902;49.474;8.616;2023-07-20T01:44:19;2.70;;;2.30;;
7719;SDS011;3902;49.474;8.616;2023-07-20T01:46:45;7.60;;;2.30;;
7719;SDS011;3902;49.474;8.616;2023-07-20T01:49:10;4.93;;;2.90;;
7719;SDS011;3902;49.474;8.616;2023-07-20T01:51:36;3.10;;;2.80;;
7719;SDS011;3902;49.474;8.616;2023-07-20T01:54:02;4.03;;;2.37;;
7719;SDS011;3902;49.474;8.616;2023-07-20T01:56:27;3.47;;;2.77;;
7719;SDS011;3902;49.474;8.616;2023-07-20T01:58:53;4.40;;;2.80;;
7719;SDS011;3902;49.474;8.616;2023-07-20T02:01:18;4.27;;;2.53;;
7719;SDS011;3902;49.474;8.616;2023-07-20T02:03:44;4.87;;;2.40;;
7719;SDS011;3902;49.474;8.616;2023-07-20T02:06:10;3.17;;;2.70;;
7719;SDS011;3902;49.474;8.616;2023-07-20T02:08:35;3.17;;;2.77;;
7719;SDS011;3902;49.474;8.616;2023-07-20T02:11:01;3.50;;;2.83;;
7719;SDS011;3902;49.474;8.616;2023-07-20T02:13:27;2.63;;;2.43;;
7719;SDS011;3902;49.474;8.616;2023-07-20T02:15:52;3.60;;;2.27;;
7719;SDS011;3902;49.474;8.616;2023-07-20T02:18:18;3.90;;;2.60;;
7719;SDS011;3902;49.474;8.616;2023-07-20T02:20:43;2.73;;;2.27;;
7719;SDS011;3902;49.474;8.616;2023-07-20T02:23:09;3.10;;;2.00;;
7719;SDS011;3902;49.474;8.616;2023-07-20T02:25:36;3.40;;;2.60;;
7719;SDS011;3902;49.474;8.616;2023-07-20T02:28:03;2.73;;;2.33;;
7719;SDS011;3902;49.474;8.616;2023-07-20T02:30:29;3.10;;;2.60;;
7719;SDS011;3902;49.474;8.616;2023-07-20T02:32:54;2.93;;;2.30;;
7719;SDS011;3902;49.474;8.616;2023-07-20T02:35:23;3.43;;;2.73;;
7719;SDS011;3902;49.474;8.616;2023-07-20T02:37:49;4.50;;;2.30;;
7719;SDS011;3902;49.474;8.616;2023-07-20T02:40:14;2.90;;;2.60;;
7719;SDS011;3902;49.474;8.616;2023-07-20T02:42:40;4.20;;;2.50;;
7719;SDS011;3902;49.474;8.616;2023-07-20T02:45:05;2.90;;;2.20;;
7719;SDS011;3902;49.474;8.616;2023-07-20T02:47:31;3.80;;;2.50;;
7719;SDS011;3902;49.474;8.616;2023-07-20T02:49:57;4.60;;;2.67;;
7719;SDS011;3902;49.474;8.616;2023-07-20T02:52:22;2.40;;;2.20;;
7719;SDS011;3902;49.474;8.616;2023-07-20T02:54:49;3.73;;;2.33;;
7719;SDS011;3902;49.474;8.616;2023-07-20T02:57:14;3.50;;;2.80;;
7719;SDS011;3902;49.474;8.616;2023-07-20T02:59:40;4.73;;;2.90;;
7719;SDS011;3902;49.474;8.616;2023-07-20T03:02:05;3.27;;;2.10;;
7719;SDS011;3902;49.474;8.616;2023-07-20T03:04:34;2.90;;;2.30;;
7719;SDS011;3902;49.474;8.616;2023-07-20T03:07:01;4.57;;;2.70;;
7719;SDS011;3902;49.474;8.616;2023-07-20T03:09:28;3.33;;;2.30;;
7719;SDS011;3902;49.474;8.616;2023-07-20T03:11:54;4.30;;;2.70;;
7719;SDS011;3902;49.474;8.616;2023-07-20T03:14:19;4.37;;;2.80;;
7719;SDS011;3902;49.474;8.616;2023-07-20T03:16:45;3.60;;;2.50;;
7719;SDS011;3902;49.474;8.616;2023-07-20T03:19:10;4.70;;;2.80;;
7719;SDS011;3902;49.474;8.616;2023-07-20T03:21:36;3.93;;;2.50;;
7719;SDS011;3902;49.474;8.616;2023-07-20T03:24:05;3.63;;;2.70;;
7719;SDS011;3902;49.474;8.616;2023-07-20T03:26:32;4.00;;;2.50;;
7719;SDS011;3902;49.474;8.616;2023-07-20T03:28:57;2.93;;;2.63;;
7719;SDS011;3902;49.474;8.616;2023-07-20T03:31:23;3.00;;;2.40;;
7719;SDS011;3902;49.474;8.616;2023-07-20T03:33:48;2.80;;;2.60;;
7719;SDS011;3902;49.474;8.616;2023-07-20T03:36:14;3.07;;;2.47;;
7719;SDS011;3902;49.474;8.616;2023-07-20T03:38:39;3.00;;;2.57;;
7719;SDS011;3902;49.474;8.616;2023-07-20T03:41:05;3.50;;;2.63;;
7719;SDS011;3902;49.474;8.616;2023-07-20T03:43:30;3.90;;;2.67;;
7719;SDS011;3902;49.474;8.616;2023-07-20T03:45:56;5.03;;;2.67;;
7719;SDS011;3902;49.474;8.616;2023-07-20T03:48:22;3.53;;;2.73;;
7719;SDS011;3902;49.474;8.616;2023-07-20T03:50:49;3.40;;;2.50;;
7719;SDS011;3902;49.474;8.616;2023-07-20T03:53:16;3.50;;;2.63;;
7719;SDS011;3902;49.474;8.616;2023-07-20T03:55:44;3.57;;;3.10;;
7719;SDS011;3902;49.474;8.616;2023-07-20T03:58:13;3.53;;;2.50;;
7719;SDS011;3902;49.474;8.616;2023-07-20T04:00:39;5.53;;;2.83;;
7719;SDS011;3902;49.474;8.616;2023-07-20T04:03:05;3.10;;;2.50;;
7719;SDS011;3902;49.474;8.616;2023-07-20T04:05:32;4.20;;;2.27;;
7719;SDS011;3902;49.474;8.616;2023-07-20T04:07:58;3.30;;;2.90;;
7719;SDS011;3902;49.474;8.616;2023-07-20T04:10:23;3.13;;;2.67;;
7719;SDS011;3902;49.474;8.616;2023-07-20T04:12:49;3.47;;;2.30;;
7719;SDS011;3902;49.474;8.616;2023-07-20T04:15:14;4.00;;;2.90;;
7719;SDS011;3902;49.474;8.616;2023-07-20T04:17:40;4.50;;;2.30;;
7719;SDS011;3902;49.474;8.616;2023-07-20T04:20:06;3.93;;;2.87;;
7719;SDS011;3902;49.474;8.616;2023-07-20T04:22:33;3.20;;;2.60;;
7719;SDS011;3902;49.474;8.616;2023-07-20T04:24:59;3.13;;;2.03;;
7719;SDS011;3902;49.474;8.616;2023-07-20T04:27:24;3.73;;;2.73;;
7719;SDS011;3902;49.474;8.616;2023-07-20T04:29:51;2.60;;;2.40;;
7719;SDS011;3902;49.474;8.616;2023-07-20T04:32:16;3.90;;;2.60;;
7719;SDS011;3902;49.474;8.616;2023-07-20T04:34:42;3.50;;;2.73;;
7719;SDS011;3902;49.474;8.616;2023-07-20T04:37:07;3.63;;;2.47;;
7719;SDS011;3902;49.474;8.616;2023-07-20T04:39:33;6.20;;;2.90;;
7719;SDS011;3902;49.474;8.616;2023-07-20T04:41:59;3.43;;;2.40;;
7719;SDS011;3902;49.474;8.616;2023-07-20T04:44:24;3.60;;;2.70;;
7719;SDS011;3902;49.474;8.616;2023-07-20T04:46:50;3.63;;;2.47;;
7719;SDS011;3902;49.474;8.616;2023-07-20T04:49:15;6.50;;;2.40;;
7719;SDS011;3902;49.474;8.616;2023-07-20T04:51:41;2.60;;;2.40;;
7719;SDS011;3902;49.474;8.616;2023-07-20T04:54:06;3.87;;;2.50;;
7719;SDS011;3902;49.474;8.616;2023-07-20T04:56:32;4.60;;;2.83;;
7719;SDS011;3902;49.474;8.616;2023-07-20T04:58:58;2.93;;;2.37;;
7719;SDS011;3902;49.474;8.616;2023-07-20T05:01:24;2.33;;;2.13;;
7719;SDS011;3902;49.474;8.616;2023-07-20T05:03:51;2.63;;;2.23;;
7719;SDS011;3902;49.474;8.616;2023-07-20T05:06:17;2.70;;;2.50;;
7719;SDS011;3902;49.474;8.616;2023-07-20T05:08:43;2.83;;;2.60;;
7719;SDS011;3902;49.474;8.616;2023-07-20T05:11:08;3.40;;;2.47;;
7719;SDS011;3902;49.474;8.616;2023-07-20T05:13:34;3.20;;;2.47;;
7719;SDS011;3902;49.474;8.616;2023-07-20T05:15:59;2.53;;;2.33;;
7719;SDS011;3902;49.474;8.616;2023-07-20T05:18:25;3.10;;;2.80;;
7719;SDS011;3902;49.474;8.616;2023-07-20T05:20:50;3.00;;;2.70;;
7719;SDS011;3902;49.474;8.616;2023-07-20T05:23:19;4.23;;;2.77;;
7719;SDS011;3902;49.474;8.616;2023-07-20T05:25:45;2.40;;;2.20;;
7719;SDS011;3902;49.474;8.616;2023-07-20T05:28:11;3.60;;;2.80;;
7719;SDS011;3902;49.474;8.616;2023-07-20T05:30:36;3.10;;;2.83;;
7719;SDS011;3902;49.474;8.616;2023-07-20T05:33:02;3.77;;;2.63;;
7719;SDS011;3902;49.474;8.616;2023-07-20T05:35:27;3.70;;;2.93;;
7719;SDS011;3902;49.474;8.616;2023-07-20T05:37:53;3.00;;;2.70;;
7719;SDS011;3902;49.474;8.616;2023-07-20T05:40:18;3.90;;;2.77;;
7719;SDS011;3902;49.474;8.616;2023-07-20T05:42:47;3.67;;;2.80;;
7719;SDS011;3902;49.474;8.616;2023-07-20T05:45:16;3.23;;;2.60;;
7719;SDS011;3902;49.474;8.616;2023-07-20T05:47:42;3.27;;;2.50;;
7719;SDS011;3902;49.474;8.616;2023-07-20T05:50:08;3.30;;;2.90;;
7719;SDS011;3902;49.474;8.616;2023-07-20T05:52:34;5.10;;;3.10;;
7719;SDS011;3902;49.474;8.616;2023-07-20T05:54:59;3.10;;;2.80;;
7719;SDS011;3902;49.474;8.616;2023-07-20T05:57:25;4.10;;;3.00;;
7719;SDS011;3902;49.474;8.616;2023-07-20T05:59:50;5.80;;;3.10;;
7719;SDS011;3902;49.474;8.616;2023-07-20T06:02:16;3.20;;;2.90;;
7719;SDS011;3902;49.474;8.616;2023-07-20T06:04:41;5.07;;;3.00;;
7719;SDS011;3902;49.474;8.616;2023-07-20T06:07:07;4.47;;;3.20;;
7719;SDS011;3902;49.474;8.616;2023-07-20T06:09:33;4.33;;;2.90;;
7719;SDS011;3902;49.474;8.616;2023-07-20T06:11:59;10.10;;;3.00;;
7719;SDS011;3902;49.474;8.616;2023-07-20T06:14:25;6.00;;;3.40;;
7719;SDS011;3902;49.474;8.616;2023-07-20T06:16:50;7.03;;;3.40;;
7719;SDS011;3902;49.474;8.616;2023-07-20T06:19:16;4.60;;;3.63;;
7719;SDS011;3902;49.474;8.616;2023-07-20T06:21:41;4.40;;;3.00;;
7719;SDS011;3902;49.474;8.616;2023-07-20T06:24:07;3.27;;;2.97;;
7719;SDS011;3902;49.474;8.616;2023-07-20T06:26:33;14.53;;;3.80;;
7719;SDS011;3902;49.474;8.616;2023-07-20T06:29:03;12.53;;;4.17;;
7719;SDS011;3902;49.474;8.616;2023-07-20T06:31:33;3.37;;;2.90;;
7719;SDS011;3902;49.474;8.616;2023-07-20T06:33:59;6.90;;;4.07;;
7719;SDS011;3902;49.474;8.616;2023-07-20T06:36:24;6.90;;;3.60;;
7719;SDS011;3902;49.474;8.616;2023-07-20T06:38:53;4.80;;;3.73;;
7719;SDS011;3902;49.474;8.616;2023-07-20T06:41:18;4.70;;;3.80;;
7719;SDS011;3902;49.474;8.616;2023-07-20T06:43:44;4.00;;;3.53;;
7719;SDS011;3902;49.474;8.616;2023-07-20T06:46:10;4.63;;;3.60;;
7719;SDS011;3902;49.474;8.616;2023-07-20T06:48:36;8.20;;;3.23;;
7719;SDS011;3902;49.474;8.616;2023-07-20T06:51:01;10.53;;;3.90;;
7719;SDS011;3902;49.474;8.616;2023-07-20T06:53:28;4.80;;;3.00;;
7719;SDS011;3902;49.474;8.616;2023-07-20T06:55:54;7.40;;;3.63;;
7719;SDS011;3902;49.474;8.616;2023-07-20T06:58:22;3.67;;;3.37;;
7719;SDS011;3902;49.474;8.616;2023-07-20T07:00:48;3.50;;;2.30;;
7719;SDS011;3902;49.474;8.616;2023-07-20T07:03:14;3.30;;;2.50;;
7719;SDS011;3902;49.474;8.616;2023-07-20T07:05:40;5.73;;;3.00;;
7719;SDS011;3902;49.474;8.616;2023-07-20T07:08:05;3.87;;;2.90;;
7719;SDS011;3902;49.474;8.616;2023-07-20T07:10:31;3.23;;;2.50;;
7719;SDS011;3902;49.474;8.616;2023-07-20T07:12:57;3.20;;;2.63;;
7719;SDS011;3902;49.474;8.616;2023-07-20T07:15:23;3.07;;;2.77;;
7719;SDS011;3902;49.474;8.616;2023-07-20T07:17:48;6.40;;;2.80;;
7719;SDS011;3902;49.474;8.616;2023-07-20T07:20:14;2.80;;;2.60;;
7719;SDS011;3902;49.474;8.616;2023-07-20T07:22:40;3.30;;;2.70;;
7719;SDS011;3902;49.474;8.616;2023-07-20T07:25:09;3.10;;;2.80;;
7719;SDS011;3902;49.474;8.616;2023-07-20T07:27:34;2.50;;;2.30;;
7719;SDS011;3902;49.474;8.616;2023-07-20T07:30:00;2.83;;;2.30;;
7719;SDS011;3902;49.474;8.616;2023-07-20T07:32:26;3.27;;;2.37;;
7719;SDS011;3902;49.474;8.616;2023-07-20T07:34:52;2.70;;;2.30;;
7719;SDS011;3902;49.474;8.616;2023-07-20T07:37:17;2.47;;;2.27;;
7719;SDS011;3902;49.474;8.616;2023-07-20T07:39:44;2.43;;;2.20;;
7719;SDS011;3902;49.474;8.616;2023-07-20T07:42:11;3.17;;;2.20;;
7719;SDS011;3902;49.474;8.616;2023-07-20T07:44:37;2.30;;;2.10;;
7719;SDS011;3902;49.474;8.616;2023-07-20T07:47:03;2.33;;;1.93;;
7719;SDS011;3902;49.474;8.616;2023-07-20T07:49:28;2.40;;;2.07;;
7719;SDS011;3902;49.474;8.616;2023-07-20T07:51:54;3.60;;;2.23;;
7719;SDS011;3902;49.474;8.616;2023-07-20T07:54:19;3.00;;;2.03;;
7719;SDS011;3902;49.474;8.616;2023-07-20T07:56:45;2.33;;;2.00;;
7719;SDS011;3902;49.474;8.616;2023-07-20T07:59:10;2.70;;;2.07;;
7719;SDS011;3902;49.474;8.616;2023-07-20T08:01:36;2.40;;;2.13;;
7719;SDS011;3902;49.474;8.616;2023-07-20T08:04:02;2.10;;;1.90;;
7719;SDS011;3902;49.474;8.616;2023-07-20T08:06:28;3.10;;;2.30;;
7719;SDS011;3902;49.474;8.616;2023-07-20T08:08:54;3.70;;;2.27;;
7719;SDS011;3902;49.474;8.616;2023-07-20T08:11:19;3.17;;;2.10;;
7719;SDS011;3902;49.474;8.616;2023-07-20T08:13:45;3.40;;;2.27;;
7719;SDS011;3902;49.474;8.616;2023-07-20T08:16:10;2.50;;;2.23;;
7719;SDS011;3902;49.474;8.616;2023-07-20T08:18:36;2.10;;;1.87;;
7719;SDS011;3902;49.474;8.616;2023-07-20T08:21:01;3.23;;;1.60;;
7719;SDS011;3902;49.474;8.616;2023-07-20T08:23:27;2.43;;;2.23;;
7719;SDS011;3902;49.474;8.616;2023-07-20T08:25:53;3.70;;;2.07;;
7719;SDS011;3902;49.474;8.616;2023-07-20T08:28:19;4.37;;;2.40;;
7719;SDS011;3902;49.474;8.616;2023-07-20T08:30:45;2.37;;;1.90;;
7719;SDS011;3902;49.474;8.616;2023-07-20T08:33:13;3.60;;;2.40;;
7719;SDS011;3902;49.474;8.616;2023-07-20T08:35:39;3.00;;;2.27;;
7719;SDS011;3902;49.474;8.616;2023-07-20T08:38:05;1.90;;;1.70;;
7719;SDS011;3902;49.474;8.616;2023-07-20T08:40:32;2.50;;;2.17;;
7719;SDS011;3902;49.474;8.616;2023-07-20T08:42:59;4.07;;;2.03;;
7719;SDS011;3902;49.474;8.616;2023-07-20T08:45:28;3.23;;;2.37;;
7719;SDS011;3902;49.474;8.616;2023-07-20T08:47:57;3.43;;;2.10;;
7719;SDS011;3902;49.474;8.616;2023-07-20T08:50:25;3.07;;;2.20;;
7719;SDS011;3902;49.474;8.616;2023-07-20T08:52:56;4.27;;;2.30;;
7719;SDS011;3902;49.474;8.616;2023-07-20T08:55:23;2.30;;;1.90;;
7719;SDS011;3902;49.474;8.616;2023-07-20T08:57:53;2.40;;;2.07;;
7719;SDS011;3902;49.474;8.616;2023-07-20T09:00:19;4.40;;;2.00;;
7719;SDS011;3902;49.474;8.616;2023-07-20T09:02:46;5.50;;;2.17;;
7719;SDS011;3902;49.474;8.616;2023-07-20T09:05:15;2.20;;;2.00;;
7719;SDS011;3902;49.474;8.616;2023-07-20T09:07:41;2.20;;;1.93;;
7719;SDS011;3902;49.474;8.616;2023-07-20T09:10:06;4.43;;;2.17;;
7719;SDS011;3902;49.474;8.616;2023-07-20T09:12:34;3.63;;;2.07;;
7719;SDS011;3902;49.474;8.616;2023-07-20T09:15:00;4.20;;;2.40;;
7719;SDS011;3902;49.474;8.616;2023-07-20T09:17:26;2.30;;;1.70;;
7719;SDS011;3902;49.474;8.616;2023-07-20T09:19:51;3.60;;;2.50;;
7719;SDS011;3902;49.474;8.616;2023-07-20T09:22:17;3.30;;;2.10;;
7719;SDS011;3902;49.474;8.616;2023-07-20T09:24:43;2.83;;;2.30;;
7719;SDS011;3902;49.474;8.616;2023-07-20T09:27:09;6.83;;;2.60;;
7719;SDS011;3902;49.474;8.616;2023-07-20T09:29:47;2.67;;;2.20;;
7719;SDS011;3902;49.474;8.616;2023-07-20T09:32:14;2.57;;;2.33;;
7719;SDS011;3902;49.474;8.616;2023-07-20T09:34:44;3.17;;;2.60;;
7719;SDS011;3902;49.474;8.616;2023-07-20T09:37:10;3.00;;;2.13;;
7719;SDS011;3902;49.474;8.616;2023-07-20T09:39:45;6.83;;;4.57;;
7719;SDS011;3902;49.474;8.616;2023-07-20T09:42:13;3.43;;;2.40;;
7719;SDS011;3902;49.474;8.616;2023-07-20T09:44:39;8.10;;;2.87;;
7719;SDS011;3902;49.474;8.616;2023-07-20T09:47:08;3.80;;;2.53;;
7719;SDS011;3902;49.474;8.616;2023-07-20T09:49:38;2.80;;;2.53;;
7719;SDS011;3902;49.474;8.616;2023-07-20T09:52:10;7.40;;;2.37;;
7719;SDS011;3902;49.474;8.616;2023-07-20T09:54:39;5.93;;;2.17;;
7719;SDS011;3902;49.474;8.616;2023-07-20T09:57:09;2.30;;;2.07;;
7719;SDS011;3902;49.474;8.616;2023-07-20T09:59:38;2.30;;;2.10;;
7719;SDS011;3902;49.474;8.616;2023-07-20T10:02:05;2.90;;;2.27;;
7719;SDS011;3902;49.474;8.616;2023-07-20T10:04:43;3.70;;;2.53;;
7719;SDS011;3902;49.474;8.616;2023-07-20T10:07:09;3.00;;;2.00;;
7719;SDS011;3902;49.474;8.616;2023-07-20T10:09:39;3.40;;;2.40;;
7719;SDS011;3902;49.474;8.616;2023-07-20T10:12:05;3.57;;;2.43;;
7719;SDS011;3902;49.474;8.616;2023-07-20T10:14:34;2.47;;;2.27;;
7719;SDS011;3902;49.474;8.616;2023-07-20T10:17:04;2.43;;;2.23;;
7719;SDS011;3902;49.474;8.616;2023-07-20T10:19:46;5.53;;;2.20;;
7719;SDS011;3902;49.474;8.616;2023-07-20T10:22:25;2.60;;;2.30;;
7719;SDS011;3902;49.474;8.616;2023-07-20T10:24:52;2.70;;;2.07;;
7719;SDS011;3902;49.474;8.616;2023-07-20T10:27:22;2.70;;;2.23;;
7719;SDS011;3902;49.474;8.616;2023-07-20T10:29:48;5.60;;;2.37;;
7719;SDS011;3902;49.474;8.616;2023-07-20T10:32:16;2.00;;;1.90;;
7719;SDS011;3902;49.474;8.616;2023-07-20T10:34:42;2.37;;;1.90;;
7719;SDS011;3902;49.474;8.616;2023-07-20T10:37:08;2.67;;;2.10;;
7719;SDS011;3902;49.474;8.616;2023-07-20T10:39:33;3.37;;;2.20;;
7719;SDS011;3902;49.474;8.616;2023-07-20T10:42:03;2.30;;;2.10;;
7719;SDS011;3902;49.474;8.616;2023-07-20T10:44:32;4.40;;;2.00;;
7719;SDS011;3902;49.474;8.616;2023-07-20T10:46:59;2.93;;;2.43;;
7719;SDS011;3902;49.474;8.616;2023-07-20T10:49:25;2.90;;;2.03;;
7719;SDS011;3902;49.474;8.616;2023-07-20T10:51:57;5.47;;;2.33;;
7719;SDS011;3902;49.474;8.616;2023-07-20T10:56:52;2.77;;;1.90;;
7719;SDS011;3902;49.474;8.616;2023-07-20T11:02:06;2.70;;;2.30;;
7719;SDS011;3902;49.474;8.616;2023-07-20T11:07:04;6.07;;;2.30;;
7719;SDS011;3902;49.474;8.616;2023-07-20T11:09:33;2.20;;;2.00;;
7719;SDS011;3902;49.474;8.616;2023-07-20T11:14:42;4.93;;;2.20;;
7719;SDS011;3902;49.474;8.616;2023-07-20T11:17:17;3.03;;;2.20;;
7719;SDS011;3902;49.474;8.616;2023-07-20T11:19:47;2.47;;;2.27;;
7719;SDS011;3902;49.474;8.616;2023-07-20T11:22:16;3.47;;;2.20;;
7719;SDS011;3902;49.474;8.616;2023-07-20T11:24:42;2.20;;;1.97;;
7719;SDS011;3902;49.474;8.616;2023-07-20T11:27:08;6.50;;;2.50;;
7719;SDS011;3902;49.474;8.616;2023-07-20T11:29:34;2.70;;;2.20;;
7719;SDS011;3902;49.474;8.616;2023-07-20T11:32:01;2.60;;;2.40;;
7719;SDS011;3902;49.474;8.616;2023-07-20T11:34:29;2.40;;;2.20;;
7719;SDS011;3902;49.474;8.616;2023-07-20T11:36:56;2.33;;;2.13;;
7719;SDS011;3902;49.474;8.616;2023-07-20T11:39:22;3.40;;;2.00;;
7719;SDS011;3902;49.474;8.616;2023-07-20T11:41:51;2.17;;;1.63;;
7719;SDS011;3902;49.474;8.616;2023-07-20T11:44:19;2.20;;;1.80;;
7719;SDS011;3902;49.474;8.616;2023-07-20T11:46:59;3.40;;;1.80;;
7719;SDS011;3902;49.474;8.616;2023-07-20T11:49:41;3.77;;;1.70;;
7719;SDS011;3902;49.474;8.616;2023-07-20T11:52:10;2.33;;;2.00;;
7719;SDS011;3902;49.474;8.616;2023-07-20T11:54:39;3.60;;;2.40;;
7719;SDS011;3902;49.474;8.616;2023-07-20T11:57:05;5.87;;;2.67;;
7719;SDS011;3902;49.474;8.616;2023-07-20T11:59:31;4.80;;;1.73;;
7719;SDS011;3902;49.474;8.616;2023-07-20T12:01:58;2.67;;;2.13;;
7719;SDS011;3902;49.474;8.616;2023-07-20T12:04:28;2.63;;;2.20;;
7719;SDS011;3902;49.474;8.616;2023-07-20T12:06:54;3.73;;;1.80;;
7719;SDS011;3902;49.474;8.616;2023-07-20T12:09:20;4.13;;;2.10;;
7719;SDS011;3902;49.474;8.616;2023-07-20T12:11:48;3.70;;;2.30;;
7719;SDS011;3902;49.474;8.616;2023-07-20T12:14:14;2.00;;;1.83;;
7719;SDS011;3902;49.474;8.616;2023-07-20T12:16:40;3.53;;;1.93;;
7719;SDS011;3902;49.474;8.616;2023-07-20T12:19:10;3.03;;;1.90;;
7719;SDS011;3902;49.474;8.616;2023-07-20T12:21:38;2.90;;;2.00;;
7719;SDS011;3902;49.474;8.616;2023-07-20T12:24:08;1.97;;;1.77;;
7719;SDS011;3902;49.474;8.616;2023-07-20T12:26:35;1.80;;;1.70;;
7719;SDS011;3902;49.474;8.616;2023-07-20T12:29:00;2.93;;;1.80;;
7719;SDS011;3902;49.474;8.616;2023-07-20T12:31:28;1.77;;;1.67;;
7719;SDS011;3902;49.474;8.616;2023-07-20T12:33:54;1.73;;;1.63;;
7719;SDS011;3902;49.474;8.616;2023-07-20T12:36:21;1.93;;;1.73;;
7719;SDS011;3902;49.474;8.616;2023-07-20T12:38:47;3.33;;;1.97;;
7719;SDS011;3902;49.474;8.616;2023-07-20T12:41:12;2.73;;;2.20;;
7719;SDS011;3902;49.474;8.616;2023-07-20T12:43:39;2.20;;;1.90;;
7719;SDS011;3902;49.474;8.616;2023-07-20T12:46:05;1.80;;;1.70;;
7719;SDS011;3902;49.474;8.616;2023-07-20T12:48:31;3.20;;;2.00;;
7719;SDS011;3902;49.474;8.616;2023-07-20T12:50:57;3.53;;;2.00;;
7719;SDS011;3902;49.474;8.616;2023-07-20T12:53:23;3.10;;;2.27;;
7719;SDS011;3902;49.474;8.616;2023-07-20T12:55:49;2.20;;;2.00;;
7719;SDS011;3902;49.474;8.616;2023-07-20T12:58:14;3.83;;;1.90;;
7719;SDS011;3902;49.474;8.616;2023-07-20T13:00:40;2.50;;;2.03;;
7719;SDS011;3902;49.474;8.616;2023-07-20T13:03:06;2.23;;;1.70;;
7719;SDS011;3902;49.474;8.616;2023-07-20T13:05:33;2.20;;;1.93;;
7719;SDS011;3902;49.474;8.616;2023-07-20T13:08:00;2.23;;;2.03;;
7719;SDS011;3902;49.474;8.616;2023-07-20T13:10:25;2.73;;;2.10;;
7719;SDS011;3902;49.474;8.616;2023-07-20T13:12:51;2.23;;;2.03;;
7719;SDS011;3902;49.474;8.616;2023-07-20T13:15:17;2.63;;;2.03;;
7719;SDS011;3902;49.474;8.616;2023-07-20T13:17:43;2.13;;;1.93;;
7719;SDS011;3902;49.474;8.616;2023-07-20T13:20:09;3.50;;;2.13;;
7719;SDS011;3902;49.474;8.616;2023-07-20T13:22:38;2.33;;;2.13;;
7719;SDS011;3902;49.474;8.616;2023-07-20T13:25:04;2.40;;;2.13;;
7719;SDS011;3902;49.474;8.616;2023-07-20T13:27:31;1.87;;;1.77;;
7719;SDS011;3902;49.474;8.616;2023-07-20T13:29:57;2.70;;;1.70;;
7719;SDS011;3902;49.474;8.616;2023-07-20T13:32:23;2.40;;;2.10;;
7719;SDS011;3902;49.474;8.616;2023-07-20T13:34:49;2.10;;;2.00;;
7719;SDS011;3902;49.474;8.616;2023-07-20T13:37:14;4.03;;;2.43;;
7719;SDS011;3902;49.474;8.616;2023-07-20T13:39:41;2.20;;;2.00;;
7719;SDS011;3902;49.474;8.616;2023-07-20T13:42:07;3.17;;;2.07;;
7719;SDS011;3902;49.474;8.616;2023-07-20T13:44:34;2.10;;;1.90;;
7719;SDS011;3902;49.474;8.616;2023-07-20T13:47:00;1.90;;;1.80;;
7719;SDS011;3902;49.474;8.616;2023-07-20T13:49:26;2.10;;;1.80;;
7719;SDS011;3902;49.474;8.616;2023-07-20T13:51:51;4.27;;;2.20;;
7719;SDS011;3902;49.474;8.616;2023-07-20T13:54:17;2.20;;;2.00;;
7719;SDS011;3902;49.474;8.616;2023-07-20T13:56:42;3.17;;;2.00;;
7719;SDS011;3902;49.474;8.616;2023-07-20T13:59:08;2.00;;;1.90;;
7719;SDS011;3902;49.474;8.616;2023-07-20T14:01:33;1.97;;;1.60;;
7719;SDS011;3902;49.474;8.616;2023-07-20T14:04:00;2.13;;;1.93;;
7719;SDS011;3902;49.474;8.616;2023-07-20T14:06:29;3.23;;;2.00;;
7719;SDS011;3902;49.474;8.616;2023-07-20T14:08:55;4.00;;;2.00;;
7719;SDS011;3902;49.474;8.616;2023-07-20T14:11:22;1.80;;;1.70;;
7719;SDS011;3902;49.474;8.616;2023-07-20T14:13:48;2.70;;;1.90;;
7719;SDS011;3902;49.474;8.616;2023-07-20T14:16:14;2.70;;;2.10;;
7719;SDS011;3902;49.474;8.616;2023-07-20T14:18:40;1.97;;;1.87;;
7719;SDS011;3902;49.474;8.616;2023-07-20T14:21:05;2.30;;;1.93;;
7719;SDS011;3902;49.474;8.616;2023-07-20T14:23:31;2.97;;;1.90;;
7719;SDS011;3902;49.474;8.616;2023-07-20T14:25:57;1.90;;;1.80;;
7719;SDS011;3902;49.474;8.616;2023-07-20T14:28:23;1.80;;;1.60;;
7719;SDS011;3902;49.474;8.616;2023-07-20T14:30:49;2.90;;;1.80;;
7719;SDS011;3902;49.474;8.616;2023-07-20T14:33:15;2.97;;;2.00;;
7719;SDS011;3902;49.474;8.616;2023-07-20T14:35:40;2.20;;;2.00;;
7719;SDS011;3902;49.474;8.616;2023-07-20T14:38:05;3.27;;;2.20;;
7719;SDS011;3902;49.474;8.616;2023-07-20T14:40:31;2.30;;;2.10;;
7719;SDS011;3902;49.474;8.616;2023-07-20T14:42:57;3.27;;;2.13;;
7719;SDS011;3902;49.474;8.616;2023-07-20T14:45:22;2.80;;;2.20;;
7719;SDS011;3902;49.474;8.616;2023-07-20T14:47:49;3.20;;;2.00;;
7719;SDS011;3902;49.474;8.616;2023-07-20T14:50:18;3.17;;;2.10;;
7719;SDS011;3902;49.474;8.616;2023-07-20T14:52:45;2.30;;;2.10;;
7719;SDS011;3902;49.474;8.616;2023-07-20T14:55:11;2.23;;;2.00;;
7719;SDS011;3902;49.474;8.616;2023-07-20T14:57:36;2.43;;;1.73;;
7719;SDS011;3902;49.474;8.616;2023-07-20T15:00:03;2.13;;;1.93;;
7719;SDS011;3902;49.474;8.616;2023-07-20T15:02:33;2.70;;;2.03;;
7719;SDS011;3902;49.474;8.616;2023-07-20T15:04:58;1.87;;;1.67;;
7719;SDS011;3902;49.474;8.616;2023-07-20T15:07:24;6.00;;;2.13;;
7719;SDS011;3902;49.474;8.616;2023-07-20T15:09:50;2.33;;;2.13;;
7719;SDS011;3902;49.474;8.616;2023-07-20T15:12:16;2.80;;;2.20;;
7719;SDS011;3902;49.474;8.616;2023-07-20T15:14:42;3.10;;;1.90;;
7719;SDS011;3902;49.474;8.616;2023-07-20T15:17:09;2.27;;;2.07;;
7719;SDS011;3902;49.474;8.616;2023-07-20T15:19:35;2.07;;;1.87;;
7719;SDS011;3902;49.474;8.616;2023-07-20T15:22:01;2.53;;;1.80;;
7719;SDS011;3902;49.474;8.616;2023-07-20T15:24:27;4.20;;;1.70;;
7719;SDS011;3902;49.474;8.616;2023-07-20T15:26:53;3.03;;;2.10;;
7719;SDS011;3902;49.474;8.616;2023-07-20T15:29:19;2.33;;;2.07;;